createdAt,value
2023-07-08T00:00:14.298Z,19.61
2023-07-08T00:02:40.590Z,19.65
2023-07-08T00:05:06.904Z,19.64
2023-07-08T00:07:33.169Z,19.71
2023-07-08T00:09:59.443Z,19.61
2023-07-08T00:12:25.698Z,19.66
2023-07-08T00:14:51.984Z,19.74
2023-07-08T00:17:18.252Z,19.65
2023-07-08T00:19:44.514Z,19.61
2023-07-08T00:22:10.772Z,19.51
2023-07-08T00:24:37.069Z,19.50
2023-07-08T00:27:03.356Z,19.42
2023-07-08T00:29:29.609Z,19.43
2023-07-08T00:31:55.905Z,19.43
2023-07-08T00:34:22.196Z,19.43
2023-07-08T00:36:48.455Z,19.43
2023-07-08T00:39:14.828Z,19.34
2023-07-08T00:41:41.137Z,19.29
2023-07-08T00:44:07.423Z,19.17
2023-07-08T00:46:33.912Z,19.17
2023-07-08T00:49:00.300Z,19.03
2023-07-08T00:51:26.572Z,19.07
2023-07-08T00:53:52.866Z,19.05
2023-07-08T00:56:19.146Z,18.93
2023-07-08T00:58:45.413Z,18.88
2023-07-08T01:01:11.691Z,18.82
2023-07-08T01:03:38.081Z,18.77
2023-07-08T01:06:04.452Z,18.84
2023-07-08T01:08:30.744Z,18.76
2023-07-08T01:10:59.242Z,18.83
2023-07-08T01:13:27.047Z,18.94
2023-07-08T01:15:53.366Z,19.06
2023-07-08T01:18:19.673Z,19.09
2023-07-08T01:20:45.950Z,19.07
2023-07-08T01:23:12.243Z,18.98
2023-07-08T01:25:38.531Z,18.97
2023-07-08T01:28:04.860Z,18.99
2023-07-08T01:30:31.149Z,19.02
2023-07-08T01:32:57.532Z,18.86
2023-07-08T01:35:23.822Z,18.82
2023-07-08T01:37:50.075Z,18.78
2023-07-08T01:40:16.358Z,18.85
2023-07-08T01:42:42.630Z,18.97
2023-07-08T01:45:08.906Z,19.06
2023-07-08T01:47:35.226Z,19.13
2023-07-08T01:50:01.602Z,19.11
2023-07-08T01:52:27.931Z,19.16
2023-07-08T01:54:54.245Z,19.17
2023-07-08T01:57:20.519Z,19.14
2023-07-08T01:59:46.806Z,19.17
2023-07-08T02:02:13.067Z,19.21
2023-07-08T02:04:39.332Z,19.14
2023-07-08T02:07:05.616Z,18.98
2023-07-08T02:09:31.881Z,18.92
2023-07-08T02:11:58.189Z,19.01
2023-07-08T02:14:24.505Z,19.10
2023-07-08T02:16:50.833Z,19.15
2023-07-08T02:19:17.124Z,19.16
2023-07-08T02:21:43.409Z,19.04
2023-07-08T02:24:09.701Z,18.87
2023-07-08T02:26:35.975Z,18.90
2023-07-08T02:29:02.254Z,18.86
2023-07-08T02:31:28.641Z,18.96
2023-07-08T02:33:54.982Z,19.01
2023-07-08T02:36:21.275Z,19.09
2023-07-08T02:38:47.601Z,19.08
2023-07-08T02:41:13.891Z,19.13
2023-07-08T02:43:40.158Z,19.10
2023-07-08T02:46:06.486Z,19.17
2023-07-08T02:48:32.866Z,19.17
2023-07-08T02:50:59.456Z,19.26
2023-07-08T02:53:25.858Z,19.25
2023-07-08T02:55:52.139Z,19.05
2023-07-08T02:58:18.403Z,19.06
2023-07-08T03:00:44.683Z,19.09
2023-07-08T03:03:11.069Z,19.11
2023-07-08T03:05:37.464Z,19.08
2023-07-08T03:08:03.736Z,19.04
2023-07-08T03:10:30.006Z,19.10
2023-07-08T03:12:56.286Z,19.16
2023-07-08T03:15:22.554Z,19.22
2023-07-08T03:17:48.892Z,19.30
2023-07-08T03:20:15.235Z,19.40
2023-07-08T03:22:41.522Z,19.39
2023-07-08T03:25:07.766Z,19.37
2023-07-08T03:27:34.035Z,19.33
2023-07-08T03:30:00.331Z,19.37
2023-07-08T03:32:27.045Z,19.44
2023-07-08T03:34:53.378Z,19.50
2023-07-08T03:37:19.637Z,19.59
2023-07-08T03:39:45.913Z,19.57
2023-07-08T03:42:12.169Z,19.54
2023-07-08T03:44:38.451Z,19.57
2023-07-08T03:47:04.706Z,19.53
2023-07-08T03:49:30.983Z,19.50
2023-07-08T03:51:57.256Z,19.45
2023-07-08T03:54:23.557Z,19.41
2023-07-08T03:56:49.876Z,19.46
2023-07-08T03:59:16.340Z,19.49
2023-07-08T04:01:42.699Z,19.53
2023-07-08T04:04:09.192Z,19.62
2023-07-08T04:06:35.566Z,19.73
2023-07-08T04:09:01.815Z,19.71
2023-07-08T04:11:28.595Z,19.62
2023-07-08T04:13:54.888Z,19.63
2023-07-08T04:16:22.365Z,19.52
2023-07-08T04:18:48.678Z,19.58
2023-07-08T04:23:44.115Z,19.53
2023-07-08T04:26:10.409Z,19.43
2023-07-08T04:28:36.801Z,19.22
2023-07-08T04:31:03.344Z,19.06
2023-07-08T04:33:29.910Z,19.02
2023-07-08T04:35:56.180Z,19.01
2023-07-08T04:38:22.567Z,19.07
2023-07-08T04:40:48.955Z,19.15
2023-07-08T04:43:15.228Z,19.18
2023-07-08T04:45:41.516Z,19.19
2023-07-08T04:48:07.835Z,19.26
2023-07-08T04:50:34.144Z,19.25
2023-07-08T04:53:00.416Z,19.21
2023-07-08T04:55:26.701Z,19.22
2023-07-08T04:57:53.008Z,19.14
2023-07-08T05:00:19.294Z,19.24
2023-07-08T05:02:45.585Z,18.99
2023-07-08T05:05:11.873Z,18.76
2023-07-08T05:07:38.158Z,18.74
2023-07-08T05:10:04.434Z,18.75
2023-07-08T05:12:30.691Z,18.72
2023-07-08T05:14:56.968Z,18.76
2023-07-08T05:17:23.247Z,18.87
2023-07-08T05:19:49.533Z,18.91
2023-07-08T05:22:15.993Z,19.06
2023-07-08T05:24:42.268Z,19.08
2023-07-08T05:27:08.530Z,19.16
2023-07-08T05:29:34.799Z,19.22
2023-07-08T05:32:01.139Z,19.30
2023-07-08T05:34:27.416Z,19.40
2023-07-08T05:36:53.669Z,19.50
2023-07-08T05:39:19.959Z,19.60
2023-07-08T05:41:46.300Z,19.73
2023-07-08T05:44:12.699Z,19.85
2023-07-08T05:46:39.039Z,19.98
2023-07-08T05:49:05.329Z,20.02
2023-07-08T05:51:31.631Z,20.07
2023-07-08T05:53:57.918Z,20.01
2023-07-08T05:56:24.196Z,19.98
2023-07-08T05:58:50.502Z,19.95
2023-07-08T06:01:16.860Z,20.02
2023-07-08T06:03:43.278Z,20.03
2023-07-08T06:06:09.579Z,20.13
2023-07-08T06:08:35.883Z,20.16
2023-07-08T06:11:02.368Z,20.27
2023-07-08T06:13:28.906Z,20.35
2023-07-08T06:15:55.354Z,20.37
2023-07-08T06:18:21.725Z,20.35
2023-07-08T06:20:48.048Z,20.24
2023-07-08T06:23:14.330Z,20.10
2023-07-08T06:25:40.929Z,20.14
2023-07-08T06:28:07.279Z,20.10
2023-07-08T06:30:33.560Z,20.22
2023-07-08T06:33:01.547Z,20.44
2023-07-08T06:35:28.109Z,20.50
2023-07-08T06:37:54.390Z,20.69
2023-07-08T06:40:20.657Z,20.93
2023-07-08T06:42:46.964Z,21.08
2023-07-08T06:45:13.258Z,21.25
2023-07-08T06:47:39.620Z,21.45
2023-07-08T06:50:05.906Z,21.65
2023-07-08T06:52:32.164Z,21.74
2023-07-08T06:54:58.428Z,21.87
2023-07-08T06:57:24.690Z,21.98
2023-07-08T06:59:50.950Z,22.12
2023-07-08T07:02:17.203Z,22.26
2023-07-08T07:04:43.502Z,22.33
2023-07-08T07:07:09.867Z,22.49
2023-07-08T07:09:36.179Z,22.19
2023-07-08T07:12:02.460Z,22.39
2023-07-08T07:17:08.410Z,22.20
2023-07-08T07:19:35.622Z,22.34
2023-07-08T07:22:01.922Z,22.50
2023-07-08T07:24:28.196Z,22.78
2023-07-08T07:26:54.513Z,23.01
2023-07-08T07:29:20.773Z,23.20
2023-07-08T07:31:47.081Z,23.38
2023-07-08T07:34:13.437Z,23.54
2023-07-08T07:36:39.702Z,23.47
2023-07-08T07:39:05.974Z,23.63
2023-07-08T07:41:32.264Z,23.86
2023-07-08T07:43:58.530Z,24.00
2023-07-08T07:46:24.806Z,24.16
2023-07-08T07:48:51.089Z,23.71
2023-07-08T07:51:17.382Z,23.61
2023-07-08T07:53:43.680Z,23.65
2023-07-08T07:56:09.978Z,23.89
2023-07-08T07:58:36.293Z,24.05
2023-07-08T08:01:02.769Z,24.07
2023-07-08T08:03:29.235Z,24.06
2023-07-08T08:05:55.557Z,24.12
2023-07-08T08:08:21.809Z,24.12
2023-07-08T08:10:48.080Z,24.23
2023-07-08T08:13:14.499Z,24.35
2023-07-08T08:15:40.757Z,24.51
2023-07-08T08:18:07.083Z,24.21
2023-07-08T08:20:33.465Z,23.94
2023-07-08T08:22:59.754Z,23.61
2023-07-08T08:25:26.103Z,23.79
2023-07-08T08:27:52.422Z,23.89
2023-07-08T08:30:18.774Z,23.79
2023-07-08T08:32:45.125Z,24.00
2023-07-08T08:35:11.450Z,24.25
2023-07-08T08:37:37.738Z,23.64
2023-07-08T08:40:04.023Z,23.95
2023-07-08T08:42:30.304Z,24.16
2023-07-08T08:44:56.558Z,24.33
2023-07-08T08:47:22.871Z,24.49
2023-07-08T08:49:49.153Z,24.49
2023-07-08T08:52:15.461Z,24.32
2023-07-08T08:54:41.757Z,24.05
2023-07-08T08:57:09.171Z,23.87
2023-07-08T08:59:35.482Z,24.10
2023-07-08T09:02:01.816Z,24.38
2023-07-08T09:04:28.206Z,24.55
2023-07-08T09:06:54.534Z,24.72
2023-07-08T09:09:20.796Z,24.77
2023-07-08T09:11:47.062Z,24.49
2023-07-08T09:14:13.363Z,24.53
2023-07-08T09:16:39.757Z,24.43
2023-07-08T09:19:06.028Z,24.82
2023-07-08T09:21:32.311Z,25.09
2023-07-08T09:23:58.583Z,25.09
2023-07-08T09:26:24.874Z,25.22
2023-07-08T09:28:51.143Z,25.00
2023-07-08T09:31:17.486Z,24.86
2023-07-08T09:33:43.896Z,25.31
2023-07-08T09:36:10.184Z,25.77
2023-07-08T09:38:36.456Z,25.56
2023-07-08T09:41:03.007Z,25.67
2023-07-08T09:43:29.560Z,25.42
2023-07-08T09:45:55.846Z,25.47
2023-07-08T09:48:22.193Z,25.65
2023-07-08T09:50:48.499Z,25.84
2023-07-08T09:53:14.770Z,25.78
2023-07-08T09:55:41.089Z,25.91
2023-07-08T09:58:08.944Z,25.97
2023-07-08T10:00:35.306Z,25.90
2023-07-08T10:03:01.688Z,25.92
2023-07-08T10:05:28.022Z,26.01
2023-07-08T10:07:54.368Z,26.06
2023-07-08T10:10:20.682Z,25.92
2023-07-08T10:12:46.952Z,25.65
2023-07-08T10:15:13.247Z,25.87
2023-07-08T10:17:39.634Z,25.95
2023-07-08T10:20:05.928Z,25.99
2023-07-08T10:22:32.249Z,26.05
2023-07-08T10:24:58.572Z,26.06
2023-07-08T10:27:24.834Z,26.00
2023-07-08T10:29:51.121Z,25.91
2023-07-08T10:32:17.407Z,25.83
2023-07-08T10:34:43.689Z,25.85
2023-07-08T10:37:09.986Z,25.97
2023-07-08T10:39:36.294Z,26.07
2023-07-08T10:42:02.696Z,26.13
2023-07-08T10:44:28.967Z,26.29
2023-07-08T10:46:55.282Z,26.41
2023-07-08T10:49:21.544Z,26.29
2023-07-08T10:51:47.832Z,26.48
2023-07-08T10:54:14.110Z,26.49
2023-07-08T10:56:40.395Z,26.52
2023-07-08T10:59:07.221Z,26.57
2023-07-08T11:01:33.646Z,26.76
2023-07-08T11:04:00.620Z,26.87
2023-07-08T11:06:26.920Z,26.75
2023-07-08T11:08:53.228Z,26.55
2023-07-08T11:11:19.699Z,26.66
2023-07-08T11:13:46.186Z,26.81
2023-07-08T11:16:12.654Z,26.94
2023-07-08T11:18:38.936Z,27.14
2023-07-08T11:21:05.223Z,27.10
2023-07-08T11:23:31.515Z,27.25
2023-07-08T11:25:57.789Z,27.40
2023-07-08T11:28:24.080Z,27.52
2023-07-08T11:30:50.458Z,27.53
2023-07-08T11:33:16.822Z,27.52
2023-07-08T11:35:43.153Z,27.36
2023-07-08T11:38:09.443Z,27.42
2023-07-08T11:40:35.777Z,27.31
2023-07-08T11:43:02.089Z,27.42
2023-07-08T11:45:28.397Z,27.66
2023-07-08T11:47:54.810Z,27.78
2023-07-08T11:50:21.194Z,27.55
2023-07-08T11:52:47.512Z,27.67
2023-07-08T11:55:13.817Z,27.91
2023-07-08T11:57:40.123Z,27.91
2023-07-08T12:00:06.419Z,28.18
2023-07-08T12:02:32.819Z,28.25
2023-07-08T12:04:59.186Z,28.39
2023-07-08T12:07:25.468Z,28.59
2023-07-08T12:09:51.797Z,28.24
2023-07-08T12:12:18.089Z,28.20
2023-07-08T12:14:44.416Z,28.03
2023-07-08T12:17:10.808Z,28.28
2023-07-08T12:19:37.250Z,28.38
2023-07-08T12:22:03.516Z,28.31
2023-07-08T12:24:29.819Z,28.49
2023-07-08T12:26:56.115Z,28.31
2023-07-08T12:29:22.411Z,28.12
2023-07-08T12:31:48.708Z,28.41
2023-07-08T12:34:15.009Z,28.62
2023-07-08T12:36:41.326Z,28.65
2023-07-08T12:39:07.592Z,28.46
2023-07-08T12:41:33.890Z,28.51
2023-07-08T12:44:00.196Z,28.46
2023-07-08T12:46:26.525Z,28.49
2023-07-08T12:48:52.904Z,28.25
2023-07-08T12:51:19.179Z,28.30
2023-07-08T12:53:45.456Z,28.38
2023-07-08T12:56:11.857Z,28.53
2023-07-08T12:58:38.185Z,28.47
2023-07-08T13:01:04.697Z,28.55
2023-07-08T13:03:31.345Z,28.59
2023-07-08T13:05:57.762Z,29.18
2023-07-08T13:08:24.031Z,29.22
2023-07-08T13:10:50.344Z,29.74
2023-07-08T13:13:16.698Z,29.57
2023-07-08T13:15:42.996Z,30.11
2023-07-08T13:18:09.406Z,29.82
2023-07-08T13:20:35.765Z,29.67
2023-07-08T13:23:02.130Z,29.56
2023-07-08T13:25:28.534Z,29.58
2023-07-08T13:27:54.834Z,29.82
2023-07-08T13:30:21.098Z,29.80
2023-07-08T13:32:47.545Z,29.68
2023-07-08T13:35:13.853Z,29.67
2023-07-08T13:37:40.128Z,30.14
2023-07-08T13:40:06.410Z,30.06
2023-07-08T13:42:32.777Z,29.85
2023-07-08T13:44:59.074Z,29.92
2023-07-08T13:47:25.366Z,30.04
2023-07-08T13:49:51.664Z,30.14
2023-07-08T13:52:17.956Z,30.19
2023-07-08T13:54:44.231Z,30.28
2023-07-08T13:57:10.528Z,30.32
2023-07-08T13:59:36.830Z,30.03
2023-07-08T14:02:03.261Z,29.72
2023-07-08T14:04:29.621Z,29.54
2023-07-08T14:06:55.915Z,29.41
2023-07-08T14:09:22.238Z,29.92
2023-07-08T14:11:48.538Z,29.56
2023-07-08T14:14:14.816Z,29.44
2023-07-08T14:16:41.110Z,29.62
2023-07-08T14:19:07.415Z,29.37
2023-07-08T14:21:33.703Z,29.63
2023-07-08T14:23:59.986Z,29.73
2023-07-08T14:26:26.333Z,29.12
2023-07-08T14:28:52.636Z,29.13
2023-07-08T14:31:18.936Z,28.79
2023-07-08T14:33:45.255Z,28.86
2023-07-08T14:36:11.536Z,28.97
2023-07-08T14:38:37.814Z,29.31
2023-07-08T14:41:04.129Z,29.43
2023-07-08T14:43:30.410Z,29.75
2023-07-08T14:45:56.823Z,29.84
2023-07-08T14:48:24.839Z,29.70
2023-07-08T14:50:52.465Z,29.86
2023-07-08T14:53:18.777Z,30.09
2023-07-08T14:55:45.102Z,30.25
2023-07-08T14:58:11.399Z,30.40
2023-07-08T15:00:37.672Z,30.16
2023-07-08T15:03:04.001Z,30.06
2023-07-08T15:05:30.351Z,30.17
2023-07-08T15:07:56.635Z,30.04
2023-07-08T15:10:22.897Z,30.05
2023-07-08T15:12:49.194Z,30.03
2023-07-08T15:15:15.496Z,29.84
2023-07-08T15:17:41.928Z,29.95
2023-07-08T15:20:08.270Z,30.03
2023-07-08T15:22:34.545Z,29.76
2023-07-08T15:25:00.846Z,29.73
2023-07-08T15:27:27.131Z,29.98
2023-07-08T15:29:53.421Z,29.66
2023-07-08T15:32:40.050Z,29.66
2023-07-08T15:35:05.961Z,29.74
2023-07-08T15:37:32.271Z,29.62
2023-07-08T15:39:58.564Z,29.61
2023-07-08T15:42:24.924Z,29.59
2023-07-08T15:44:51.215Z,29.45
2023-07-08T15:47:17.564Z,29.61
2023-07-08T15:49:43.918Z,29.66
2023-07-08T15:52:10.319Z,29.71
2023-07-08T15:54:36.614Z,29.54
2023-07-08T15:57:02.900Z,29.71
2023-07-08T15:59:29.183Z,29.66
2023-07-08T16:01:55.457Z,29.76
2023-07-08T16:04:21.726Z,29.82
2023-07-08T16:06:48.000Z,29.72
2023-07-08T16:09:14.280Z,29.94
2023-07-08T16:11:40.547Z,29.82
2023-07-08T16:14:06.905Z,29.93
2023-07-08T16:16:33.252Z,29.94
2023-07-08T16:18:59.541Z,29.87
2023-07-08T16:21:25.826Z,29.89
2023-07-08T16:23:52.132Z,29.65
2023-07-08T16:26:18.421Z,29.73
2023-07-08T16:28:44.715Z,29.53
2023-07-08T16:31:11.010Z,29.64
2023-07-08T16:33:37.362Z,29.38
2023-07-08T16:36:03.662Z,29.38
2023-07-08T16:38:30.015Z,29.28
2023-07-08T16:40:56.268Z,29.23
2023-07-08T16:43:22.592Z,29.23
2023-07-08T16:45:48.850Z,29.29
2023-07-08T16:48:15.153Z,29.35
2023-07-08T16:50:41.470Z,29.44
2023-07-08T16:53:07.762Z,29.20
2023-07-08T16:55:34.037Z,29.26
2023-07-08T16:58:00.334Z,29.40
2023-07-08T17:00:26.622Z,29.34
2023-07-08T17:02:52.979Z,29.24
2023-07-08T17:05:19.307Z,29.20
2023-07-08T17:07:45.584Z,29.17
2023-07-08T17:10:11.920Z,29.10
2023-07-08T17:12:38.239Z,29.06
2023-07-08T17:15:04.490Z,29.18
2023-07-08T17:17:30.757Z,29.23
2023-07-08T17:19:57.083Z,29.14
2023-07-08T17:22:23.396Z,29.37
2023-07-08T17:24:49.691Z,29.19
2023-07-08T17:27:15.971Z,29.35
2023-07-08T17:29:42.256Z,29.19
2023-07-08T17:32:08.585Z,29.01
2023-07-08T17:34:34.933Z,28.99
2023-07-08T17:37:01.208Z,28.85
2023-07-08T17:39:27.463Z,28.91
2023-07-08T17:41:54.391Z,28.97
2023-07-08T17:44:21.568Z,28.96
2023-07-08T17:46:47.922Z,28.56
2023-07-08T17:49:14.285Z,28.40
2023-07-08T17:51:40.589Z,28.31
2023-07-08T17:54:06.894Z,28.17
2023-07-08T17:56:33.173Z,27.82
2023-07-08T17:58:59.460Z,27.51
2023-07-08T18:01:25.785Z,27.36
2023-07-08T18:03:52.200Z,27.53
2023-07-08T18:06:18.520Z,27.40
2023-07-08T18:08:44.820Z,27.31
2023-07-08T18:11:11.096Z,27.14
2023-07-08T18:13:37.506Z,27.26
2023-07-08T18:16:04.094Z,27.19
2023-07-08T18:18:30.655Z,27.20
2023-07-08T18:20:57.014Z,27.09
2023-07-08T18:23:23.326Z,26.80
2023-07-08T18:25:49.629Z,26.89
2023-07-08T18:28:15.921Z,26.88
2023-07-08T18:30:42.225Z,26.75
2023-07-08T18:33:08.578Z,26.63
2023-07-08T18:35:36.488Z,26.54
2023-07-08T18:38:02.807Z,26.40
2023-07-08T18:40:29.092Z,26.31
2023-07-08T18:42:55.411Z,26.12
2023-07-08T18:45:21.710Z,25.93
2023-07-08T18:47:48.093Z,25.75
2023-07-08T18:50:15.893Z,25.60
2023-07-08T18:52:42.214Z,25.36
2023-07-08T18:55:08.493Z,25.21
2023-07-08T18:57:34.784Z,25.12
2023-07-08T19:00:01.062Z,25.10
2023-07-08T19:02:27.429Z,25.05
2023-07-08T19:04:53.730Z,24.98
2023-07-08T19:07:20.032Z,24.85
2023-07-08T19:09:46.328Z,24.76
2023-07-08T19:12:12.625Z,24.60
2023-07-08T19:14:38.939Z,24.48
2023-07-08T19:17:05.249Z,24.40
2023-07-08T19:19:31.549Z,24.25
2023-07-08T19:21:57.813Z,24.20
2023-07-08T19:24:36.937Z,24.16
2023-07-08T19:27:04.258Z,24.14
2023-07-08T19:29:30.533Z,23.99
2023-07-08T19:31:56.795Z,23.96
2023-07-08T19:34:23.108Z,23.82
2023-07-08T19:36:49.424Z,23.69
2023-07-08T19:39:15.728Z,23.58
2023-07-08T19:41:42.017Z,23.48
2023-07-08T19:44:08.299Z,23.33
2023-07-08T19:46:34.637Z,23.31
2023-07-08T19:49:00.969Z,23.20
2023-07-08T19:51:27.254Z,23.20
2023-07-08T19:53:53.545Z,23.20
2023-07-08T19:56:19.856Z,23.16
2023-07-08T19:58:46.279Z,23.10
2023-07-08T20:01:12.541Z,23.10
2023-07-08T20:03:38.963Z,23.04
2023-07-08T20:06:05.427Z,23.00
2023-07-08T20:08:31.905Z,23.04
2023-07-08T20:10:58.170Z,23.04
2023-07-08T20:13:24.524Z,22.97
2023-07-08T20:15:51.470Z,23.07
2023-07-08T20:18:17.725Z,23.03
2023-07-08T20:20:43.997Z,23.03
2023-07-08T20:23:10.298Z,22.98
2023-07-08T20:25:36.609Z,22.89
2023-07-08T20:28:02.878Z,22.78
2023-07-08T20:30:29.180Z,22.70
2023-07-08T20:32:55.615Z,22.71
2023-07-08T20:35:21.926Z,22.69
2023-07-08T20:37:48.212Z,22.63
2023-07-08T20:40:14.866Z,22.64
2023-07-08T20:42:41.200Z,22.62
2023-07-08T20:45:07.499Z,22.56
2023-07-08T20:47:33.828Z,22.52
2023-07-08T20:50:00.203Z,22.54
2023-07-08T20:52:26.504Z,22.52
2023-07-08T20:54:52.757Z,22.53
2023-07-08T20:57:19.249Z,22.56
2023-07-08T20:59:45.556Z,22.59
2023-07-08T21:02:11.853Z,22.44
2023-07-08T21:04:38.130Z,22.43
2023-07-08T21:07:04.415Z,22.46
2023-07-08T21:09:30.705Z,22.48
2023-07-08T21:11:56.992Z,22.44
2023-07-08T21:14:24.504Z,22.41
2023-07-08T21:16:50.977Z,22.37
2023-07-08T21:19:17.343Z,22.28
2023-07-08T21:21:43.622Z,22.20
2023-07-08T21:24:09.921Z,22.21
2023-07-08T21:26:36.239Z,22.13
2023-07-08T21:29:02.547Z,22.15
2023-07-08T21:31:28.842Z,22.18
2023-07-08T21:33:55.149Z,22.22
2023-07-08T21:36:21.440Z,22.13
2023-07-08T21:38:47.752Z,22.13
2023-07-08T21:41:14.024Z,22.13
2023-07-08T21:43:40.293Z,22.01
2023-07-08T21:46:06.860Z,22.09
2023-07-08T21:48:33.254Z,22.08
2023-07-08T21:50:59.525Z,22.07
2023-07-08T21:53:25.789Z,21.99
2023-07-08T21:55:52.062Z,21.99
2023-07-08T21:58:18.368Z,21.98
2023-07-08T22:00:44.635Z,21.92
2023-07-08T22:03:10.949Z,21.87
2023-07-08T22:05:37.423Z,21.87
2023-07-08T22:08:03.718Z,21.66
2023-07-08T22:10:30.051Z,21.77
2023-07-08T22:12:56.356Z,21.77
2023-07-08T22:15:22.718Z,21.79
2023-07-08T22:17:49.153Z,21.80
2023-07-08T22:20:15.552Z,21.78
2023-07-08T22:22:41.852Z,21.74
2023-07-08T22:25:08.157Z,21.81
2023-07-08T22:27:34.434Z,21.91
2023-07-08T22:30:00.716Z,21.90
2023-07-08T22:32:27.020Z,21.84
2023-07-08T22:34:53.335Z,21.85
2023-07-08T22:37:19.614Z,21.81
2023-07-08T22:39:45.904Z,21.83
2023-07-08T22:42:12.165Z,21.94
2023-07-08T22:44:38.417Z,21.96
2023-07-08T22:47:04.772Z,21.94
2023-07-08T22:49:31.091Z,21.91
2023-07-08T22:51:57.381Z,21.92
2023-07-08T22:54:23.649Z,21.86
2023-07-08T22:56:49.936Z,21.86
2023-07-08T22:59:16.230Z,21.91
2023-07-08T23:01:42.534Z,21.97
2023-07-08T23:04:09.082Z,21.93
2023-07-08T23:06:35.631Z,21.90
2023-07-08T23:09:02.026Z,21.90
2023-07-08T23:11:28.299Z,21.93
2023-07-08T23:13:54.697Z,21.99
2023-07-08T23:16:21.144Z,21.98
2023-07-08T23:18:47.493Z,21.95
2023-07-08T23:21:13.783Z,21.88
2023-07-08T23:23:40.071Z,21.79
2023-07-08T23:26:06.370Z,21.80
2023-07-08T23:28:32.643Z,21.70
2023-07-08T23:30:58.925Z,21.59
2023-07-08T23:33:25.217Z,21.64
2023-07-08T23:35:51.509Z,21.60
2023-07-08T23:38:17.816Z,21.55
2023-07-08T23:40:44.122Z,21.43
2023-07-08T23:43:10.386Z,21.35
2023-07-08T23:45:36.663Z,21.16
2023-07-08T23:48:03.004Z,21.23
2023-07-08T23:50:29.306Z,21.23
2023-07-08T23:52:55.573Z,21.19
2023-07-08T23:55:21.844Z,21.18
2023-07-08T23:57:48.142Z,21.13
